<?xml version="1.0" encoding="UTF-8" standalone="no" ?>
<gpx xmlns="http://www.topografix.com/GPX/1/1" xmlns:xsi="http://www.w3.org/2001/XMLSchema-instance" xsi:schemaLocation="http://www.topografix.com/GPX/1/1 http://www.topografix.com/GPX/1/1/gpx.xsd" version="1.1" creator="VisuGPX - https://www.visugpx.com">
  <metadata>
    <name>Sainte Lucie</name>
    <desc><![CDATA[départ Martinique Le marin
arrivée Sainte Lucie Soufrière bay
lipari 41 
9 équipiers
2 jours
]]></desc>
  </metadata>
  <trk>
    <name><![CDATA[Tracé actuel: 05 DEC 2016 22:29]]></name>
    <trkseg>
      <trkpt lat="13.85377" lon="-61.05939">
        <ele>7.83</ele>
        <time>2016-12-06T02:29:33Z</time>
      </trkpt>
      <trkpt lat="13.85389" lon="-61.05946">
        <ele>7.83</ele>
        <time>2016-12-06T02:29:49Z</time>
      </trkpt>
      <trkpt lat="13.85392" lon="-61.05947">
        <ele>7.83</ele>
        <time>2016-12-06T02:29:52Z</time>
      </trkpt>
      <trkpt lat="13.85397" lon="-61.05952">
        <ele>7.83</ele>
        <time>2016-12-06T02:29:59Z</time>
      </trkpt>
      <trkpt lat="13.85409" lon="-61.05954">
        <ele>7.83</ele>
        <time>2016-12-06T02:30:09Z</time>
      </trkpt>
      <trkpt lat="13.85413" lon="-61.05954">
        <ele>7.83</ele>
        <time>2016-12-06T02:30:13Z</time>
      </trkpt>
      <trkpt lat="13.8543" lon="-61.05961">
        <ele>7.83</ele>
        <time>2016-12-06T02:30:31Z</time>
      </trkpt>
      <trkpt lat="13.85433" lon="-61.05962">
        <ele>7.83</ele>
        <time>2016-12-06T02:30:34Z</time>
      </trkpt>
      <trkpt lat="13.85438" lon="-61.05965">
        <ele>7.83</ele>
        <time>2016-12-06T02:30:40Z</time>
      </trkpt>
      <trkpt lat="13.85445" lon="-61.05967">
        <ele>7.35</ele>
        <time>2016-12-06T02:30:49Z</time>
      </trkpt>
      <trkpt lat="13.85447" lon="-61.05968">
        <ele>7.35</ele>
        <time>2016-12-06T02:30:51Z</time>
      </trkpt>
      <trkpt lat="13.85457" lon="-61.05973">
        <ele>7.35</ele>
        <time>2016-12-06T02:31:01Z</time>
      </trkpt>
      <trkpt lat="13.85463" lon="-61.05976">
        <ele>7.35</ele>
        <time>2016-12-06T02:31:15Z</time>
      </trkpt>
      <trkpt lat="13.8546" lon="-61.0598">
        <ele>7.35</ele>
        <time>2016-12-06T02:31:27Z</time>
      </trkpt>
      <trkpt lat="13.85455" lon="-61.05992">
        <ele>7.35</ele>
        <time>2016-12-06T02:31:41Z</time>
      </trkpt>
      <trkpt lat="13.85453" lon="-61.05997">
        <ele>7.35</ele>
        <time>2016-12-06T02:31:52Z</time>
      </trkpt>
      <trkpt lat="13.85453" lon="-61.05997">
        <ele>6.87</ele>
        <time>2016-12-06T02:32:03Z</time>
      </trkpt>
      <trkpt lat="13.85453" lon="-61.05997">
        <ele>6.87</ele>
        <time>2016-12-06T02:32:16Z</time>
      </trkpt>
      <trkpt lat="13.85456" lon="-61.05999">
        <ele>6.39</ele>
        <time>2016-12-06T02:32:31Z</time>
      </trkpt>
      <trkpt lat="13.85454" lon="-61.06003">
        <ele>6.39</ele>
        <time>2016-12-06T02:32:42Z</time>
      </trkpt>
      <trkpt lat="13.85454" lon="-61.06003">
        <ele>5.91</ele>
        <time>2016-12-06T02:32:52Z</time>
      </trkpt>
      <trkpt lat="13.85454" lon="-61.06003">
        <ele>5.91</ele>
        <time>2016-12-06T02:33:03Z</time>
      </trkpt>
      <trkpt lat="13.85455" lon="-61.06002">
        <ele>5.91</ele>
        <time>2016-12-06T02:33:14Z</time>
      </trkpt>
      <trkpt lat="13.85455" lon="-61.06001">
        <ele>5.91</ele>
        <time>2016-12-06T02:33:25Z</time>
      </trkpt>
      <trkpt lat="13.85455" lon="-61.06001">
        <ele>5.91</ele>
        <time>2016-12-06T02:33:35Z</time>
      </trkpt>
      <trkpt lat="13.85453" lon="-61.06001">
        <ele>5.91</ele>
        <time>2016-12-06T02:33:47Z</time>
      </trkpt>
      <trkpt lat="13.85453" lon="-61.06001">
        <ele>5.42</ele>
        <time>2016-12-06T02:34:09Z</time>
      </trkpt>
      <trkpt lat="13.85452" lon="-61.06002">
        <ele>5.42</ele>
        <time>2016-12-06T02:34:28Z</time>
      </trkpt>
      <trkpt lat="13.85453" lon="-61.06002">
        <ele>5.42</ele>
        <time>2016-12-06T02:34:42Z</time>
      </trkpt>
      <trkpt lat="13.85453" lon="-61.06002">
        <ele>5.42</ele>
        <time>2016-12-06T02:34:52Z</time>
      </trkpt>
      <trkpt lat="13.85453" lon="-61.06002">
        <ele>4.94</ele>
        <time>2016-12-06T02:35:07Z</time>
      </trkpt>
      <trkpt lat="13.85452" lon="-61.06003">
        <ele>3.98</ele>
        <time>2016-12-06T02:35:26Z</time>
      </trkpt>
      <trkpt lat="13.85448" lon="-61.0601">
        <ele>4.94</ele>
        <time>2016-12-06T02:35:45Z</time>
      </trkpt>
      <trkpt lat="13.85432" lon="-61.06012">
        <ele>5.42</ele>
        <time>2016-12-06T02:35:54Z</time>
      </trkpt>
      <trkpt lat="13.85395" lon="-61.06032">
        <ele>6.87</ele>
        <time>2016-12-06T02:36:13Z</time>
      </trkpt>
      <trkpt lat="13.85363" lon="-61.06049">
        <ele>6.39</ele>
        <time>2016-12-06T02:36:29Z</time>
      </trkpt>
      <trkpt lat="13.85323" lon="-61.06078">
        <ele>6.39</ele>
        <time>2016-12-06T02:36:51Z</time>
      </trkpt>
      <trkpt lat="13.85294" lon="-61.06097">
        <ele>6.39</ele>
        <time>2016-12-06T02:37:06Z</time>
      </trkpt>
      <trkpt lat="13.85264" lon="-61.06116">
        <ele>6.39</ele>
        <time>2016-12-06T02:37:22Z</time>
      </trkpt>
      <trkpt lat="13.85223" lon="-61.06139">
        <ele>6.87</ele>
        <time>2016-12-06T02:37:43Z</time>
      </trkpt>
      <trkpt lat="13.85191" lon="-61.0616">
        <ele>7.83</ele>
        <time>2016-12-06T02:38:00Z</time>
      </trkpt>
      <trkpt lat="13.85148" lon="-61.06177">
        <ele>7.35</ele>
        <time>2016-12-06T02:38:21Z</time>
      </trkpt>
      <trkpt lat="13.85116" lon="-61.06188">
        <ele>8.31</ele>
        <time>2016-12-06T02:38:36Z</time>
      </trkpt>
      <trkpt lat="13.85077" lon="-61.06199">
        <ele>8.79</ele>
        <time>2016-12-06T02:38:55Z</time>
      </trkpt>
      <trkpt lat="13.85042" lon="-61.06206">
        <ele>8.79</ele>
        <time>2016-12-06T02:39:12Z</time>
      </trkpt>
      <trkpt lat="13.85017" lon="-61.06207">
        <ele>7.35</ele>
        <time>2016-12-06T02:39:28Z</time>
      </trkpt>
      <trkpt lat="13.8501" lon="-61.06203">
        <ele>6.39</ele>
        <time>2016-12-06T02:39:45Z</time>
      </trkpt>
      <trkpt lat="13.85009" lon="-61.06201">
        <ele>5.42</ele>
        <time>2016-12-06T02:39:58Z</time>
      </trkpt>
      <trkpt lat="13.85006" lon="-61.06197">
        <ele>4.94</ele>
        <time>2016-12-06T02:40:13Z</time>
      </trkpt>
      <trkpt lat="13.84998" lon="-61.06187">
        <ele>5.91</ele>
        <time>2016-12-06T02:40:28Z</time>
      </trkpt>
      <trkpt lat="13.85009" lon="-61.06164">
        <ele>5.42</ele>
        <time>2016-12-06T02:40:42Z</time>
      </trkpt>
      <trkpt lat="13.85029" lon="-61.06141">
        <ele>4.94</ele>
        <time>2016-12-06T02:40:58Z</time>
      </trkpt>
      <trkpt lat="13.85047" lon="-61.06128">
        <ele>4.46</ele>
        <time>2016-12-06T02:41:10Z</time>
      </trkpt>
      <trkpt lat="13.85079" lon="-61.06116">
        <ele>5.42</ele>
        <time>2016-12-06T02:41:28Z</time>
      </trkpt>
      <trkpt lat="13.85108" lon="-61.06098">
        <ele>4.94</ele>
        <time>2016-12-06T02:41:46Z</time>
      </trkpt>
      <trkpt lat="13.85135" lon="-61.06089">
        <ele>4.94</ele>
        <time>2016-12-06T02:42:01Z</time>
      </trkpt>
      <trkpt lat="13.85166" lon="-61.06082">
        <ele>5.42</ele>
        <time>2016-12-06T02:42:17Z</time>
      </trkpt>
      <trkpt lat="13.85196" lon="-61.06079">
        <ele>6.39</ele>
        <time>2016-12-06T02:42:33Z</time>
      </trkpt>
      <trkpt lat="13.85238" lon="-61.06062">
        <ele>5.91</ele>
        <time>2016-12-06T02:42:56Z</time>
      </trkpt>
      <trkpt lat="13.8527" lon="-61.06055">
        <ele>5.91</ele>
        <time>2016-12-06T02:43:13Z</time>
      </trkpt>
      <trkpt lat="13.85307" lon="-61.06044">
        <ele>4.46</ele>
        <time>2016-12-06T02:43:33Z</time>
      </trkpt>
      <trkpt lat="13.85338" lon="-61.06032">
        <ele>4.94</ele>
        <time>2016-12-06T02:43:50Z</time>
      </trkpt>
      <trkpt lat="13.8538" lon="-61.06017">
        <ele>5.42</ele>
        <time>2016-12-06T02:44:13Z</time>
      </trkpt>
      <trkpt lat="13.85426" lon="-61.06006">
        <ele>5.91</ele>
        <time>2016-12-06T02:44:37Z</time>
      </trkpt>
      <trkpt lat="13.85449" lon="-61.06003">
        <ele>5.91</ele>
        <time>2016-12-06T02:44:56Z</time>
      </trkpt>
      <trkpt lat="13.85454" lon="-61.06003">
        <ele>6.87</ele>
        <time>2016-12-06T02:45:12Z</time>
      </trkpt>
      <trkpt lat="13.85454" lon="-61.06003">
        <ele>6.39</ele>
        <time>2016-12-06T02:45:24Z</time>
      </trkpt>
      <trkpt lat="13.85454" lon="-61.06003">
        <ele>5.42</ele>
        <time>2016-12-06T02:45:49Z</time>
      </trkpt>
      <trkpt lat="13.85454" lon="-61.06003">
        <ele>5.42</ele>
        <time>2016-12-06T02:46:08Z</time>
      </trkpt>
      <trkpt lat="13.85453" lon="-61.06001">
        <ele>5.42</ele>
        <time>2016-12-06T02:46:11Z</time>
      </trkpt>
      <trkpt lat="13.85445" lon="-61.06001">
        <ele>5.91</ele>
        <time>2016-12-06T02:46:17Z</time>
      </trkpt>
      <trkpt lat="13.85413" lon="-61.06015">
        <ele>3.98</ele>
        <time>2016-12-06T02:46:33Z</time>
      </trkpt>
      <trkpt lat="13.85374" lon="-61.06047">
        <ele>4.94</ele>
        <time>2016-12-06T02:46:55Z</time>
      </trkpt>
      <trkpt lat="13.85336" lon="-61.06079">
        <ele>5.91</ele>
        <time>2016-12-06T02:47:16Z</time>
      </trkpt>
      <trkpt lat="13.85293" lon="-61.06106">
        <ele>7.35</ele>
        <time>2016-12-06T02:47:38Z</time>
      </trkpt>
      <trkpt lat="13.85245" lon="-61.06138">
        <ele>8.31</ele>
        <time>2016-12-06T02:48:03Z</time>
      </trkpt>
      <trkpt lat="13.85206" lon="-61.06156">
        <ele>8.31</ele>
        <time>2016-12-06T02:48:22Z</time>
      </trkpt>
      <trkpt lat="13.85164" lon="-61.06179">
        <ele>7.83</ele>
        <time>2016-12-06T02:48:43Z</time>
      </trkpt>
      <trkpt lat="13.85111" lon="-61.06199">
        <ele>6.87</ele>
        <time>2016-12-06T02:49:08Z</time>
      </trkpt>
      <trkpt lat="13.85068" lon="-61.06208">
        <ele>6.87</ele>
        <time>2016-12-06T02:49:28Z</time>
      </trkpt>
      <trkpt lat="13.85026" lon="-61.06207">
        <ele>6.87</ele>
        <time>2016-12-06T02:49:49Z</time>
      </trkpt>
      <trkpt lat="13.85022" lon="-61.06206">
        <ele>6.39</ele>
        <time>2016-12-06T02:50:04Z</time>
      </trkpt>
      <trkpt lat="13.85021" lon="-61.06205">
        <ele>5.91</ele>
        <time>2016-12-06T02:50:18Z</time>
      </trkpt>
      <trkpt lat="13.85021" lon="-61.06204">
        <ele>6.39</ele>
        <time>2016-12-06T02:50:40Z</time>
      </trkpt>
      <trkpt lat="13.85021" lon="-61.06203">
        <ele>6.39</ele>
        <time>2016-12-06T02:50:58Z</time>
      </trkpt>
      <trkpt lat="13.85021" lon="-61.06202">
        <ele>5.91</ele>
        <time>2016-12-06T02:51:12Z</time>
      </trkpt>
      <trkpt lat="13.85021" lon="-61.06203">
        <ele>5.91</ele>
        <time>2016-12-06T02:51:27Z</time>
      </trkpt>
      <trkpt lat="13.8502" lon="-61.06203">
        <ele>6.39</ele>
        <time>2016-12-06T02:51:44Z</time>
      </trkpt>
      <trkpt lat="13.85018" lon="-61.06202">
        <ele>5.42</ele>
        <time>2016-12-06T02:52:02Z</time>
      </trkpt>
      <trkpt lat="13.85018" lon="-61.06202">
        <ele>5.42</ele>
        <time>2016-12-06T02:52:12Z</time>
      </trkpt>
      <trkpt lat="13.85018" lon="-61.06202">
        <ele>4.94</ele>
        <time>2016-12-06T02:52:17Z</time>
      </trkpt>
    </trkseg>
  </trk>
</gpx>